createdAt,value
2018-05-13T00:01:49.064Z,18.70
2018-05-13T00:04:17.287Z,18.70
2018-05-13T00:06:44.741Z,18.70
2018-05-13T00:09:12.209Z,18.60
2018-05-13T00:11:39.653Z,18.60
2018-05-13T00:14:07.980Z,18.70
2018-05-13T00:16:35.437Z,18.70
2018-05-13T00:19:02.897Z,18.80
2018-05-13T00:21:30.353Z,18.80
2018-05-13T00:23:58.581Z,18.70
2018-05-13T00:26:26.031Z,18.80
2018-05-13T00:28:53.503Z,18.70
2018-05-13T00:31:20.984Z,18.70
2018-05-13T00:33:48.436Z,18.70
2018-05-13T00:36:16.010Z,18.60
2018-05-13T00:38:43.468Z,18.60
2018-05-13T00:41:10.916Z,18.60
2018-05-13T00:43:39.148Z,18.70
2018-05-13T00:46:06.592Z,18.80
2018-05-13T00:48:34.036Z,18.70
2018-05-13T00:51:01.502Z,18.80
2018-05-13T00:53:29.704Z,18.70
2018-05-13T00:55:57.938Z,18.60
2018-05-13T00:58:25.385Z,18.60
2018-05-13T01:00:52.843Z,18.60
2018-05-13T01:03:21.056Z,18.70
2018-05-13T01:05:48.513Z,18.60
2018-05-13T01:08:15.960Z,18.70
2018-05-13T01:10:44.175Z,18.70
2018-05-13T01:13:11.632Z,18.70
2018-05-13T01:15:39.098Z,18.80
2018-05-13T01:18:06.549Z,18.80
2018-05-13T01:20:34.787Z,18.90
2018-05-13T01:23:02.232Z,18.90
2018-05-13T01:25:29.682Z,18.90
2018-05-13T01:27:57.129Z,18.90
2018-05-13T01:30:25.368Z,18.80
2018-05-13T01:32:52.817Z,18.80
2018-05-13T01:35:20.280Z,19.00
2018-05-13T01:37:47.724Z,18.90
2018-05-13T01:40:15.940Z,18.80
2018-05-13T01:42:43.383Z,18.70
2018-05-13T01:45:11.613Z,18.70
2018-05-13T01:47:39.094Z,18.70
2018-05-13T01:50:06.544Z,18.60
2018-05-13T01:52:33.988Z,18.50
2018-05-13T01:55:02.213Z,18.50
2018-05-13T01:57:29.672Z,18.40
2018-05-13T01:59:57.125Z,18.40
2018-05-13T02:02:24.576Z,18.40
2018-05-13T02:04:52.793Z,18.40
2018-05-13T02:07:20.246Z,18.40
2018-05-13T02:09:47.698Z,18.30
2018-05-13T02:12:15.912Z,18.30
2018-05-13T02:14:43.374Z,18.30
2018-05-13T02:17:10.824Z,18.20
2018-05-13T02:19:39.040Z,18.30
2018-05-13T02:22:06.489Z,18.20
2018-05-13T02:24:33.935Z,18.40
2018-05-13T02:27:02.149Z,18.50
2018-05-13T02:29:29.599Z,18.50
2018-05-13T02:31:57.818Z,18.60
2018-05-13T02:34:25.274Z,18.50
2018-05-13T02:36:52.722Z,18.50
2018-05-13T02:39:20.940Z,18.60
2018-05-13T02:41:48.395Z,18.60
2018-05-13T02:44:16.606Z,18.60
2018-05-13T02:46:44.061Z,18.50
2018-05-13T02:49:11.508Z,18.50
2018-05-13T02:51:39.784Z,18.30
2018-05-13T02:54:08.113Z,18.20
2018-05-13T02:56:35.605Z,18.20
2018-05-13T02:59:03.054Z,18.20
2018-05-13T03:01:30.519Z,18.10
2018-05-13T03:03:57.997Z,17.90
2018-05-13T03:06:25.444Z,17.90
2018-05-13T03:08:52.904Z,17.80
2018-05-13T03:11:21.116Z,17.60
2018-05-13T03:13:48.572Z,17.60
2018-05-13T03:16:16.025Z,17.60
2018-05-13T03:18:44.242Z,17.60
2018-05-13T03:21:11.721Z,17.60
2018-05-13T03:23:39.185Z,17.60
2018-05-13T03:26:06.640Z,17.50
2018-05-13T03:28:34.093Z,17.40
2018-05-13T03:31:02.328Z,17.50
2018-05-13T03:33:29.769Z,17.50
2018-05-13T03:35:57.235Z,17.50
2018-05-13T03:38:24.691Z,17.50
2018-05-13T03:40:52.163Z,17.40
2018-05-13T03:43:19.615Z,17.40
2018-05-13T03:45:47.846Z,17.50
2018-05-13T03:48:15.317Z,17.50
2018-05-13T03:50:42.805Z,17.50
2018-05-13T03:53:10.251Z,17.40
2018-05-13T03:55:37.710Z,17.40
2018-05-13T03:58:05.166Z,17.30
2018-05-13T04:00:32.637Z,17.20
2018-05-13T04:03:00.094Z,17.20
2018-05-13T04:05:27.559Z,17.20
2018-05-13T04:11:21.266Z,17.40
2018-05-13T04:14:01.422Z,17.30
2018-05-13T04:16:28.886Z,17.30
2018-05-13T04:18:56.413Z,17.30
2018-05-13T04:21:23.882Z,17.30
2018-05-13T04:23:51.346Z,17.30
2018-05-13T04:26:18.809Z,17.30
2018-05-13T04:28:46.257Z,17.30
2018-05-13T04:31:14.485Z,17.20
2018-05-13T04:33:41.950Z,17.20
2018-05-13T04:36:09.408Z,17.20
2018-05-13T04:38:36.862Z,17.30
2018-05-13T04:41:04.340Z,17.20
2018-05-13T04:43:31.794Z,17.10
2018-05-13T04:46:00.289Z,17.30
2018-05-13T04:48:28.511Z,17.20
2018-05-13T04:50:55.968Z,17.20
2018-05-13T04:53:23.429Z,17.30
2018-05-13T04:55:50.900Z,17.30
2018-05-13T04:58:18.360Z,17.30
2018-05-13T05:00:45.826Z,17.40
2018-05-13T05:03:13.315Z,17.50
2018-05-13T05:05:40.770Z,17.70
2018-05-13T05:08:08.217Z,17.70
2018-05-13T05:10:36.454Z,17.80
2018-05-13T05:13:03.914Z,17.80
2018-05-13T05:15:31.374Z,17.90
2018-05-13T05:17:58.826Z,17.90
2018-05-13T05:20:26.307Z,17.90
2018-05-13T05:22:53.762Z,17.90
2018-05-13T05:25:21.224Z,17.80
2018-05-13T05:27:49.460Z,17.80
2018-05-13T05:30:16.906Z,17.80
2018-05-13T05:32:44.363Z,17.70
2018-05-13T05:35:11.825Z,17.70
2018-05-13T05:37:39.272Z,17.70
2018-05-13T05:40:07.497Z,17.70
2018-05-13T05:42:34.950Z,17.70
2018-05-13T05:45:02.401Z,17.60
2018-05-13T05:47:30.620Z,17.60
2018-05-13T05:49:58.072Z,17.60
2018-05-13T05:52:25.538Z,17.60
2018-05-13T05:54:52.994Z,17.60
2018-05-13T05:57:21.215Z,17.70
2018-05-13T05:59:48.669Z,17.70
2018-05-13T06:02:16.142Z,17.80
2018-05-13T06:04:43.590Z,17.80
2018-05-13T06:07:11.820Z,18.00
2018-05-13T06:09:39.277Z,18.00
2018-05-13T06:12:06.750Z,18.20
2018-05-13T06:14:34.218Z,18.30
2018-05-13T06:17:01.676Z,18.40
2018-05-13T06:19:29.134Z,18.50
2018-05-13T06:21:56.606Z,18.60
2018-05-13T06:24:24.048Z,18.70
2018-05-13T06:26:52.283Z,18.80
2018-05-13T06:29:19.752Z,18.70
2018-05-13T06:31:47.229Z,18.70
2018-05-13T06:34:14.678Z,18.80
2018-05-13T06:36:42.143Z,18.80
2018-05-13T06:39:09.678Z,18.90
2018-05-13T06:41:37.136Z,18.90
2018-05-13T06:44:06.122Z,18.80
2018-05-13T06:46:33.583Z,18.90
2018-05-13T06:49:01.037Z,18.90
2018-05-13T06:51:28.588Z,18.90
2018-05-13T06:53:56.000Z,18.90
2018-05-13T06:56:23.470Z,19.00
2018-05-13T06:58:50.912Z,19.00
2018-05-13T07:01:18.386Z,18.90
2018-05-13T07:03:45.863Z,18.80
2018-05-13T07:06:13.330Z,18.80
2018-05-13T07:08:40.784Z,18.70
2018-05-13T07:11:08.248Z,18.80
2018-05-13T07:13:35.705Z,18.80
2018-05-13T07:16:03.969Z,18.70
2018-05-13T07:18:31.412Z,18.70
2018-05-13T07:20:58.882Z,18.70
2018-05-13T07:23:26.345Z,18.70
2018-05-13T07:25:53.813Z,18.70
2018-05-13T07:28:21.261Z,18.60
2018-05-13T07:30:48.730Z,18.70
2018-05-13T07:33:16.193Z,18.70
2018-05-13T07:35:43.670Z,18.70
2018-05-13T07:38:11.137Z,18.60
2018-05-13T07:40:38.610Z,18.70
2018-05-13T07:43:06.066Z,18.80
2018-05-13T07:45:33.516Z,18.80
2018-05-13T07:48:01.749Z,18.80
2018-05-13T07:50:29.225Z,18.80
2018-05-13T07:52:56.693Z,18.70
2018-05-13T07:55:24.159Z,18.70
2018-05-13T07:57:51.675Z,18.80
2018-05-13T08:00:19.098Z,18.70
2018-05-13T08:02:46.572Z,18.80
2018-05-13T08:05:14.028Z,18.90
2018-05-13T08:07:41.493Z,18.90
2018-05-13T08:10:08.957Z,18.90
2018-05-13T08:12:36.426Z,19.00
2018-05-13T08:15:03.868Z,19.20
2018-05-13T08:17:31.328Z,19.20
2018-05-13T08:19:59.549Z,19.20
2018-05-13T08:22:27.013Z,19.20
2018-05-13T08:24:54.469Z,19.10
2018-05-13T08:27:21.928Z,19.00
2018-05-13T08:29:49.377Z,18.90
2018-05-13T08:32:17.610Z,18.70
2018-05-13T08:34:45.062Z,18.70
2018-05-13T08:37:12.516Z,18.80
2018-05-13T08:39:40.842Z,19.00
2018-05-13T08:42:08.317Z,19.00
2018-05-13T08:44:35.770Z,19.10
2018-05-13T08:47:03.232Z,19.10
2018-05-13T08:49:30.762Z,19.10
2018-05-13T08:51:58.226Z,19.20
2018-05-13T08:54:26.453Z,19.40
2018-05-13T08:56:53.910Z,19.40
2018-05-13T08:59:22.134Z,19.30
2018-05-13T09:01:49.590Z,19.20
2018-05-13T09:04:17.032Z,19.30
2018-05-13T09:06:45.267Z,19.40
2018-05-13T09:09:12.729Z,19.40
2018-05-13T09:11:40.186Z,19.40
2018-05-13T09:14:07.675Z,19.60
2018-05-13T09:16:35.113Z,19.50
2018-05-13T09:19:03.319Z,19.70
2018-05-13T09:21:30.778Z,19.70
2018-05-13T09:23:58.263Z,19.70
2018-05-13T09:26:25.717Z,19.90
2018-05-13T09:28:53.157Z,19.90
2018-05-13T09:31:21.386Z,20.10
2018-05-13T09:33:48.842Z,20.10
2018-05-13T09:36:16.305Z,20.00
2018-05-13T09:38:43.757Z,19.90
2018-05-13T09:41:11.978Z,20.00
2018-05-13T09:43:39.430Z,20.00
2018-05-13T09:46:06.885Z,20.10
2018-05-13T09:48:34.345Z,20.30
2018-05-13T09:51:02.570Z,21.00
2018-05-13T09:53:30.037Z,20.90
2018-05-13T09:55:57.481Z,21.10
2018-05-13T09:58:24.947Z,21.50
2018-05-13T10:00:52.402Z,21.90
2018-05-13T10:03:20.629Z,22.40
2018-05-13T10:05:48.079Z,22.30
2018-05-13T10:08:15.543Z,22.60
2018-05-13T10:10:42.988Z,22.80
2018-05-13T10:13:11.209Z,23.20
2018-05-13T10:15:38.663Z,23.20
2018-05-13T10:18:06.191Z,23.50
2018-05-13T10:20:34.426Z,24.10
2018-05-13T10:23:01.896Z,24.10
2018-05-13T10:25:29.345Z,24.20
2018-05-13T10:27:57.573Z,24.00
2018-05-13T10:30:25.030Z,24.00
2018-05-13T10:32:52.506Z,23.70
2018-05-13T10:35:19.955Z,23.70
2018-05-13T10:37:47.440Z,23.90
2018-05-13T10:40:14.894Z,23.70
2018-05-13T10:42:42.498Z,23.70
2018-05-13T10:45:09.953Z,23.90
2018-05-13T10:47:37.422Z,24.30
2018-05-13T10:50:04.893Z,24.50
2018-05-13T10:52:32.358Z,24.20
2018-05-13T10:54:59.810Z,24.10
2018-05-13T10:57:27.274Z,24.00
2018-05-13T10:59:54.726Z,23.60
2018-05-13T11:02:23.336Z,23.30
2018-05-13T11:04:51.592Z,23.30
2018-05-13T11:07:18.929Z,23.40
2018-05-13T11:09:46.376Z,23.40
2018-05-13T11:12:13.846Z,23.70
2018-05-13T11:14:41.305Z,23.80
2018-05-13T11:17:08.771Z,23.80
2018-05-13T11:19:36.257Z,23.50
2018-05-13T11:22:03.716Z,23.50
2018-05-13T11:24:31.170Z,23.30
2018-05-13T11:26:58.711Z,23.00
2018-05-13T11:29:26.846Z,22.80
2018-05-13T11:31:54.307Z,22.80
2018-05-13T11:34:21.761Z,22.50
2018-05-13T11:36:49.226Z,22.20
2018-05-13T11:39:17.457Z,22.00
2018-05-13T11:41:44.914Z,22.00
2018-05-13T11:44:12.370Z,22.00
2018-05-13T11:46:39.892Z,21.90
2018-05-13T11:49:07.292Z,21.80
2018-05-13T11:51:35.527Z,21.70
2018-05-13T11:54:02.986Z,21.70
2018-05-13T11:56:30.445Z,21.50
2018-05-13T11:58:57.894Z,21.40
2018-05-13T12:01:25.347Z,21.40
2018-05-13T12:03:53.578Z,21.30
2018-05-13T12:06:21.030Z,21.30
2018-05-13T12:08:48.492Z,21.40
2018-05-13T12:11:15.946Z,21.30
2018-05-13T12:13:44.178Z,21.50
2018-05-13T12:16:11.624Z,21.50
2018-05-13T12:18:39.098Z,21.50
2018-05-13T12:21:06.603Z,21.60
2018-05-13T12:23:34.014Z,21.60
2018-05-13T12:26:02.330Z,21.80
2018-05-13T12:28:29.797Z,21.80
2018-05-13T12:30:57.250Z,21.90
2018-05-13T12:33:24.719Z,22.00
2018-05-13T12:35:52.174Z,22.10
2018-05-13T12:38:20.406Z,22.10
2018-05-13T12:40:47.857Z,22.00
2018-05-13T12:43:15.321Z,22.10
2018-05-13T12:45:42.775Z,22.00
2018-05-13T12:48:10.238Z,22.00
2018-05-13T12:50:38.557Z,21.90
2018-05-13T12:53:06.021Z,21.90
2018-05-13T12:55:33.464Z,22.00
2018-05-13T12:58:00.936Z,22.00
2018-05-13T13:00:28.386Z,22.20
2018-05-13T13:02:56.626Z,22.50
2018-05-13T13:05:24.068Z,22.50
2018-05-13T13:07:51.522Z,22.60
2018-05-13T13:10:19.745Z,23.00
2018-05-13T13:12:47.205Z,23.00
2018-05-13T13:15:14.673Z,23.00
2018-05-13T13:17:42.122Z,23.00
2018-05-13T13:20:10.432Z,22.70
2018-05-13T13:22:37.798Z,22.70
2018-05-13T13:25:05.262Z,22.60
2018-05-13T13:27:32.735Z,22.50
2018-05-13T13:30:00.187Z,22.30
2018-05-13T13:32:27.677Z,22.10
2018-05-13T13:34:55.142Z,22.00
2018-05-13T13:37:22.603Z,21.90
2018-05-13T13:39:50.101Z,21.90
2018-05-13T13:42:17.529Z,21.90
2018-05-13T13:44:44.994Z,21.80
2018-05-13T13:47:13.240Z,21.90
2018-05-13T13:49:40.834Z,21.90
2018-05-13T13:52:08.286Z,21.90
2018-05-13T13:54:35.745Z,21.80
2018-05-13T13:57:03.193Z,22.10
2018-05-13T13:59:30.667Z,22.10
2018-05-13T14:01:58.112Z,22.10
2018-05-13T14:04:25.738Z,22.20
2018-05-13T14:06:53.184Z,22.10
2018-05-13T14:09:20.635Z,22.10
2018-05-13T14:11:48.095Z,22.10
2018-05-13T14:14:15.548Z,22.30
2018-05-13T14:16:43.020Z,22.30
2018-05-13T14:19:10.465Z,22.30
2018-05-13T14:21:37.931Z,22.50
2018-05-13T14:24:05.382Z,22.60
2018-05-13T14:26:32.850Z,22.70
2018-05-13T14:29:00.312Z,22.60
2018-05-13T14:31:27.771Z,22.60
2018-05-13T14:33:55.239Z,22.70
2018-05-13T14:36:22.797Z,22.70
2018-05-13T14:38:50.247Z,22.70
2018-05-13T14:41:17.786Z,22.70
2018-05-13T14:43:45.175Z,22.70
2018-05-13T14:46:13.403Z,22.70
2018-05-13T14:48:40.858Z,22.70
2018-05-13T14:51:08.327Z,22.90
2018-05-13T14:53:35.779Z,23.00
2018-05-13T14:56:03.243Z,23.00
2018-05-13T14:58:30.695Z,23.00
2018-05-13T15:00:58.923Z,22.90
2018-05-13T15:03:26.410Z,22.90
2018-05-13T15:05:53.895Z,22.90
2018-05-13T15:08:21.354Z,22.80
2018-05-13T15:10:48.797Z,22.60
2018-05-13T15:13:16.286Z,22.40
2018-05-13T15:15:43.746Z,22.20
2018-05-13T15:18:11.216Z,21.90
2018-05-13T15:20:38.667Z,21.80
2018-05-13T15:23:06.131Z,21.60
2018-05-13T15:25:33.577Z,21.30
2018-05-13T15:28:01.808Z,21.10
2018-05-13T15:30:29.262Z,21.10
2018-05-13T15:32:56.729Z,21.00
2018-05-13T15:35:24.182Z,21.00
2018-05-13T15:37:51.684Z,20.90
2018-05-13T15:40:19.142Z,20.90
2018-05-13T15:42:46.670Z,20.70
2018-05-13T15:45:14.045Z,20.70
2018-05-13T15:47:42.274Z,20.50
2018-05-13T15:50:09.822Z,20.50
2018-05-13T15:52:38.041Z,20.60
2018-05-13T15:55:05.592Z,20.50
2018-05-13T15:57:32.957Z,20.50
2018-05-13T16:00:00.422Z,20.40
2018-05-13T16:02:27.986Z,20.20
2018-05-13T16:04:56.197Z,20.10
2018-05-13T16:07:23.660Z,20.00
2018-05-13T16:09:51.147Z,20.00
2018-05-13T16:12:18.607Z,20.00
2018-05-13T16:14:46.245Z,19.90
2018-05-13T16:17:13.709Z,19.90
2018-05-13T16:19:41.937Z,20.00
2018-05-13T16:22:09.401Z,20.00
2018-05-13T16:24:36.864Z,19.90
2018-05-13T16:27:04.333Z,19.90
2018-05-13T16:29:31.799Z,19.80
2018-05-13T16:31:59.254Z,19.70
2018-05-13T16:34:26.740Z,19.70
2018-05-13T16:36:54.192Z,19.80
2018-05-13T16:39:21.677Z,19.70
2018-05-13T16:41:49.149Z,19.60
2018-05-13T16:44:16.615Z,19.60
2018-05-13T16:46:44.078Z,19.60
2018-05-13T16:49:11.552Z,19.60
2018-05-13T16:51:39.025Z,19.60
2018-05-13T16:54:06.495Z,19.50
2018-05-13T16:56:33.953Z,19.50
2018-05-13T16:59:01.418Z,19.50
2018-05-13T17:01:28.890Z,19.40
2018-05-13T17:03:56.357Z,19.30
2018-05-13T17:06:23.822Z,19.20
2018-05-13T17:08:51.300Z,19.10
2018-05-13T17:11:18.762Z,19.10
2018-05-13T17:13:46.220Z,19.00
2018-05-13T17:16:13.678Z,18.90
2018-05-13T17:18:41.910Z,18.70
2018-05-13T17:21:09.373Z,18.70
2018-05-13T17:23:36.859Z,18.60
2018-05-13T17:28:38.360Z,18.50
2018-05-13T17:31:05.826Z,18.40
2018-05-13T17:33:33.298Z,18.40
2018-05-13T17:36:00.748Z,18.40
2018-05-13T17:38:28.219Z,18.40
2018-05-13T17:40:55.678Z,18.40
2018-05-13T17:43:23.136Z,18.30
2018-05-13T17:45:50.599Z,18.40
2018-05-13T17:48:18.084Z,18.40
2018-05-13T17:50:45.542Z,18.30
2018-05-13T17:53:13.006Z,18.30
2018-05-13T17:55:40.456Z,18.30
2018-05-13T17:58:08.734Z,18.10
2018-05-13T18:00:36.184Z,18.10
2018-05-13T18:03:03.755Z,18.10
2018-05-13T18:05:31.106Z,18.00
2018-05-13T18:07:58.576Z,18.00
2018-05-13T18:10:26.035Z,17.80
2018-05-13T18:12:53.489Z,17.80
2018-05-13T18:15:21.068Z,17.70
2018-05-13T18:17:48.519Z,17.70
2018-05-13T18:20:16.028Z,17.70
2018-05-13T18:22:43.558Z,17.60
2018-05-13T18:25:11.031Z,17.60
2018-05-13T18:27:38.486Z,17.50
2018-05-13T18:30:05.991Z,17.50
2018-05-13T18:32:33.437Z,17.40
2018-05-13T18:35:00.903Z,17.40
2018-05-13T18:37:28.357Z,17.40
2018-05-13T18:39:56.585Z,17.30
2018-05-13T18:42:24.051Z,17.30
2018-05-13T18:44:51.522Z,17.20
2018-05-13T18:47:18.982Z,17.30
2018-05-13T18:49:46.719Z,17.10
2018-05-13T18:52:15.107Z,17.00
2018-05-13T18:54:43.385Z,17.10
2018-05-13T18:57:11.135Z,17.00
2018-05-13T18:59:38.603Z,17.00
2018-05-13T19:02:06.102Z,17.10
2018-05-13T19:04:33.570Z,17.10
2018-05-13T19:07:01.793Z,17.10
2018-05-13T19:09:29.264Z,17.10
2018-05-13T19:11:56.774Z,17.10
2018-05-13T19:14:24.213Z,17.00
2018-05-13T19:16:51.922Z,17.00
2018-05-13T19:19:19.394Z,17.00
2018-05-13T19:21:46.855Z,17.00
2018-05-13T19:24:14.312Z,17.10
2018-05-13T19:26:41.770Z,17.10
2018-05-13T19:29:09.242Z,17.10
2018-05-13T19:31:36.706Z,17.10
2018-05-13T19:37:02.506Z,17.00
2018-05-13T19:39:29.964Z,17.00
2018-05-13T19:41:57.422Z,17.00
2018-05-13T19:44:24.889Z,17.00
2018-05-13T19:46:52.355Z,16.90
2018-05-13T19:49:19.824Z,16.80
2018-05-13T19:51:47.302Z,16.90
2018-05-13T19:54:14.768Z,16.90
2018-05-13T19:56:42.301Z,16.90
2018-05-13T19:59:10.526Z,16.90
2018-05-13T20:01:38.010Z,16.80
2018-05-13T20:04:05.544Z,16.90
2018-05-13T20:06:33.003Z,16.90
2018-05-13T20:09:00.477Z,16.90
2018-05-13T20:11:27.931Z,16.90
2018-05-13T20:13:55.398Z,16.90
2018-05-13T20:16:22.967Z,16.80
2018-05-13T20:18:51.215Z,16.70
2018-05-13T20:21:18.688Z,16.70
2018-05-13T20:23:46.165Z,16.70
2018-05-13T20:26:13.614Z,16.70
2018-05-13T20:28:41.073Z,16.80
2018-05-13T20:31:08.532Z,16.70
2018-05-13T20:33:35.990Z,16.70
2018-05-13T20:36:03.531Z,16.60
2018-05-13T20:38:31.009Z,16.70
2018-05-13T20:40:58.572Z,16.70
2018-05-13T20:43:26.037Z,16.80
2018-05-13T20:45:54.274Z,16.80
2018-05-13T20:48:21.729Z,16.80
2018-05-13T20:50:49.324Z,16.90
2018-05-13T20:53:16.798Z,16.90
2018-05-13T20:55:44.352Z,16.80
2018-05-13T20:58:11.921Z,16.80
2018-05-13T21:00:39.432Z,16.70
2018-05-13T21:03:07.678Z,16.90
2018-05-13T21:05:35.158Z,16.90
2018-05-13T21:08:02.656Z,16.90
2018-05-13T21:10:31.011Z,16.90
2018-05-13T21:12:58.586Z,16.80
2018-05-13T21:15:26.041Z,16.80
2018-05-13T21:17:53.497Z,16.80
2018-05-13T21:20:20.970Z,16.80
2018-05-13T21:22:48.433Z,16.90
2018-05-13T21:25:15.907Z,16.90
2018-05-13T21:27:43.362Z,16.90
2018-05-13T21:30:11.444Z,16.90
2018-05-13T21:32:38.817Z,16.80
2018-05-13T21:35:06.274Z,16.80
2018-05-13T21:37:34.493Z,16.70
2018-05-13T21:40:01.976Z,16.60
2018-05-13T21:42:29.433Z,16.70
2018-05-13T21:44:56.898Z,16.70
2018-05-13T21:47:24.376Z,16.70
2018-05-13T21:49:51.842Z,16.70
2018-05-13T21:52:19.292Z,16.70
2018-05-13T21:54:46.765Z,16.70
2018-05-13T21:57:14.223Z,16.70
2018-05-13T21:59:41.714Z,16.80
2018-05-13T22:02:09.174Z,16.80
2018-05-13T22:04:36.654Z,16.70
2018-05-13T22:07:04.129Z,16.70
2018-05-13T22:09:31.606Z,16.80
2018-05-13T22:11:59.066Z,16.90
2018-05-13T22:14:26.535Z,16.90
2018-05-13T22:16:53.985Z,16.80
2018-05-13T22:19:21.529Z,16.80
2018-05-13T22:21:49.753Z,16.70
2018-05-13T22:24:17.212Z,16.70
2018-05-13T22:26:44.673Z,16.70
2018-05-13T22:29:13.112Z,16.70
2018-05-13T22:31:40.597Z,16.60
2018-05-13T22:34:08.818Z,16.60
2018-05-13T22:36:36.403Z,16.60
2018-05-13T22:39:03.750Z,16.50
2018-05-13T22:41:32.355Z,16.60
2018-05-13T22:43:59.796Z,16.50
2018-05-13T22:46:28.025Z,16.40
2018-05-13T22:48:55.498Z,16.40
2018-05-13T22:51:22.955Z,16.40
2018-05-13T22:53:50.462Z,16.30
2018-05-13T22:56:17.892Z,16.30
2018-05-13T22:58:45.357Z,16.30
2018-05-13T23:01:12.830Z,16.30
2018-05-13T23:03:40.280Z,16.30
2018-05-13T23:06:08.508Z,16.30
2018-05-13T23:08:35.959Z,16.30
2018-05-13T23:11:03.441Z,16.30
2018-05-13T23:13:30.893Z,16.30
2018-05-13T23:15:58.362Z,16.20
2018-05-13T23:18:25.824Z,16.30
2018-05-13T23:20:53.289Z,16.30
2018-05-13T23:23:20.820Z,16.30
2018-05-13T23:25:48.280Z,16.30
2018-05-13T23:28:15.750Z,16.30
2018-05-13T23:30:43.219Z,16.20
2018-05-13T23:33:10.672Z,16.20
2018-05-13T23:35:38.146Z,16.20
2018-05-13T23:38:05.606Z,16.10
2018-05-13T23:40:33.085Z,16.20
2018-05-13T23:43:00.537Z,16.20
2018-05-13T23:45:27.996Z,16.10
2018-05-13T23:47:55.457Z,16.10
2018-05-13T23:50:22.937Z,16.10
2018-05-13T23:52:50.401Z,16.10
2018-05-13T23:55:17.861Z,16.10
2018-05-13T23:57:45.326Z,16.00
